Flight Track Log - Related Links

Times and Time Zones

All times are in EDT time to prevent confusion due to time zone crossing. See the GJS3707 flight status page for this flight to view local times or setup timezone preferences in your user account.

Time Position Orientation Groundspeed Altitude Reporting Facility
EDT Latitude Longitude Course Direction KTS MPH feet Rate Location/Type
Sat 10:53:34 AM 42.0000 -87.9667 257° West 166 191 1,900  Level Chicago TRACON
Sat 10:54:28 AM 42.0167 -88.0333 289° West 211 243 3,600 2,000 Climbing Chicago TRACON
Sat 10:55:49 AM 42.0389 -88.1478 285° West 224 258 6,400 2,282 Climbing Chicago Center
Sat 10:56:00 AM 42.0884 -88.4922 270° West  Level Estimated
Sat 10:56:50 AM 42.0539 -88.2519 281° West 268 308 9,000  Level Chicago Center
Sat 10:57:00 AM 42.0635 -88.6393 257° West  Level FlightAware Approximate
Sat 10:57:52 AM 42.0717 -88.3564 283° West 286 329 11,200  Level Chicago Center
Sat 10:58:00 AM 42.0384 -88.7862 257° West  Level FlightAware Approximate
Sat 10:58:54 AM 42.0917 -88.4639 284° West 296 341 12,700  Level Chicago Center
Sat 10:59:56 AM 42.1153 -88.5869 285° West 344 396 13,500 1,220 Climbing Chicago Center
Sat 11:00:57 AM 42.1344 -88.7531 279° West 373 429 15,200 1,707 Climbing Chicago Center
Sat 11:01:59 AM 42.1331 -88.8994 269° West 390 449 17,000 1,548 Climbing Chicago Center
Sat 11:03:01 AM 42.1361 -89.0414 272° West 386 444 18,400 1,452 Climbing Chicago Center
Sat 11:04:03 AM 42.1383 -89.1883 271° West 394 453 20,000 1,415 Climbing Chicago Center
Sat 11:05:04 AM 42.1406 -89.3344 271° West 395 455 21,300 1,122 Climbing Chicago Center
Sat 11:06:06 AM 42.1433 -89.4867 271° West 409 471 22,300 1,016 Climbing Chicago Center
Sat 11:07:08 AM 42.1472 -89.6564 272° West 415 478 23,400 976 Climbing Chicago Center
Sat 11:08:09 AM 42.1536 -89.8142 273° West 426 490 24,300 927 Climbing Chicago Center
Sat 11:09:11 AM 42.2022 -89.9586 294° West 433 498 25,300 1,065 Climbing Chicago Center
Sat 11:10:13 AM 42.2556 -90.1353 292° West 429 494 26,500 1,113 Climbing Chicago Center
Sat 11:11:15 AM 42.3019 -90.2814 293° West 429 494 27,600 927 Climbing Chicago Center
Sat 11:12:16 AM 42.3486 -90.4256 294° West 425 489 28,400 780 Climbing Chicago Center
Sat 11:13:18 AM 42.3928 -90.5744 292° West 428 493 29,200 871 Climbing Chicago Center
Sat 11:14:20 AM 42.4403 -90.7206 294° West 429 494 30,200 919 Climbing Chicago Center
Sat 11:15:22 AM 42.4894 -90.8650 295° West 428 493 31,100 1,024 Climbing Chicago Center
Sat 11:16:23 AM 42.5481 -91.0383 295° West 427 491 32,300 1,073 Climbing Chicago Center
Sat 11:17:25 AM 42.5961 -91.1775 295° West 415 478 33,300 871 Climbing Chicago Center
Sat 11:18:27 AM 42.6417 -91.3181 294° West 411 473 34,100 871 Climbing Chicago Center
Sat 11:19:29 AM 42.6853 -91.4597 293° West 409 471 35,100 829 Climbing Chicago Center
Sat 11:20:30 AM 42.7100 -91.6153 282° West 414 476 35,800 439 Climbing Chicago Center
Sat 11:21:32 AM 42.7322 -91.7703 281° West 407 468 36,000 194 Climbing Chicago Center
Sat 11:22:34 AM 42.7547 -91.9275 281° West 419 482 36,200 488 Climbing Chicago Center
Sat 11:23:35 AM 42.7764 -92.0803 281° West 417 480 37,000 829 Climbing Chicago Center
Sat 11:24:37 AM 42.8022 -92.2597 281° West 408 470 37,900 484 Climbing Chicago Center
Sat 11:25:39 AM 42.8222 -92.4083 280° West 402 463 38,000 49 Climbing Chicago Center
Sat 11:26:40 AM 42.8428 -92.5583 281° West 405 466 38,000  Level Chicago Center
Sat 11:27:29 AM 42.8575 -92.6781 280° West 406 467 38,000  Level Minneapolis Center
Sat 11:28:31 AM 42.8786 -92.8278 281° West 406 467 38,000  Level Minneapolis Center
Sat 11:29:32 AM 42.8986 -92.9781 280° West 406 467 38,000  Level Minneapolis Center
Sat 11:30:34 AM 42.9186 -93.1269 280° West 405 466 38,000  Level Minneapolis Center
Sat 11:31:36 AM 42.9428 -93.3092 280° West 408 470 38,000  Level Minneapolis Center
Sat 11:32:38 AM 42.9619 -93.4608 280° West 409 471 38,000  Level Minneapolis Center
Sat 11:33:39 AM 42.9817 -93.6103 280° West 405 466 38,000  Level Minneapolis Center
Sat 11:34:41 AM 43.0031 -93.7622 281° West 409 471 38,000  Level Minneapolis Center
Sat 11:35:43 AM 43.0169 -93.9142 277° West 408 470 38,000  Level Minneapolis Center
Sat 11:36:44 AM 43.0386 -94.0967 279° West 409 471 38,000  Level Minneapolis Center
Sat 11:37:46 AM 43.0603 -94.2464 281° West 408 470 38,000  Level Minneapolis Center
Sat 11:38:47 AM 43.0778 -94.3981 279° West 405 466 38,000  Level Minneapolis Center
Sat 11:39:49 AM 43.0964 -94.5508 280° West 406 467 38,000  Level Minneapolis Center
Sat 11:40:51 AM 43.1147 -94.7050 279° West 411 473 38,000  Level Minneapolis Center
Sat 11:41:52 AM 43.1333 -94.8592 279° West 410 472 38,000  Level Minneapolis Center
Sat 11:42:54 AM 43.1542 -95.0478 279° West 416 479 38,000  Level Minneapolis Center
Sat 11:43:56 AM 43.1717 -95.2042 279° West 417 480 38,000  Level Minneapolis Center
Sat 11:44:57 AM 43.1892 -95.3597 279° West 413 475 38,000  Level Minneapolis Center
Sat 11:45:59 AM 43.2061 -95.5139 279° West 410 472 38,000  Level Minneapolis Center
Sat 11:47:01 AM 43.2225 -95.6706 278° West 414 476 38,000  Level Minneapolis Center
Sat 11:48:02 AM 43.2400 -95.8253 279° West 411 473 38,000  Level Minneapolis Center
Sat 11:49:04 AM 43.2564 -95.9819 278° West 413 475 38,000  Level Minneapolis Center
Sat 11:50:06 AM 43.2722 -96.1414 278° West 418 481 38,000  Level Minneapolis Center
Sat 11:51:07 AM 43.2892 -96.3006 278° West 420 483 38,000  Level Minneapolis Center
Sat 11:52:09 AM 43.3089 -96.4919 278° West 422 486 38,000  Level Minneapolis Center
Sat 11:53:11 AM 43.3244 -96.6525 278° West 422 486 38,000  Level Minneapolis Center
Sat 11:54:12 AM 43.3406 -96.8139 278° West 424 488 38,000  Level Minneapolis Center
Sat 11:55:14 AM 43.3561 -96.9750 278° West 424 488 38,000  Level Minneapolis Center
Sat 11:56:16 AM 43.3708 -97.1336 277° West 421 484 38,000  Level Minneapolis Center
Sat 11:57:17 AM 43.3858 -97.2911 278° West 418 481 38,000  Level Minneapolis Center
Sat 11:58:19 AM 43.3997 -97.4489 277° West 416 479 38,000  Level Minneapolis Center
Sat 11:59:21 AM 43.4144 -97.6072 277° West 417 480 38,000  Level Minneapolis Center
Sat 12:00:22 PM 43.4314 -97.7972 277° West 418 481 38,000  Level Minneapolis Center
Sat 12:01:24 PM 43.4439 -97.9544 276° West 416 479 38,000  Level Minneapolis Center
Sat 12:02:26 PM 43.4572 -98.1144 277° West 419 482 38,000  Level Minneapolis Center
Sat 12:03:27 PM 43.4717 -98.2764 277° West 424 488 38,000  Level Minneapolis Center
Sat 12:04:29 PM 43.4853 -98.4375 277° West 425 489 38,000  Level Minneapolis Center
Sat 12:05:31 PM 43.4994 -98.5986 277° West 424 488 38,000  Level Minneapolis Center
Sat 12:06:32 PM 43.5136 -98.7694 277° West 421 484 38,000  Level Minneapolis Center
Sat 12:07:34 PM 43.5269 -98.9267 277° West 416 479 38,000  Level Minneapolis Center
Sat 12:08:36 PM 43.5392 -99.0847 276° West 414 476 38,000  Level Minneapolis Center
Sat 12:09:37 PM 43.5511 -99.2442 276° West 417 480 38,000  Level Minneapolis Center
Sat 12:10:39 PM 43.5631 -99.4042 276° West 417 480 38,000  Level Minneapolis Center
Sat 12:11:41 PM 43.5769 -99.5972 276° West 420 483 38,000  Level Minneapolis Center
Sat 12:12:42 PM 43.5881 -99.7614 275° West 423 487 38,000  Level Minneapolis Center
Sat 12:13:44 PM 43.5994 -99.9258 276° West 428 493 38,000  Level Minneapolis Center
Sat 12:14:46 PM 43.6106 -100.0864 276° West 425 489 38,000  Level Minneapolis Center
Sat 12:15:47 PM 43.6206 -100.2467 275° West 421 484 38,000  Level Minneapolis Center
Sat 12:16:49 PM 43.6314 -100.4078 275° West 421 484 38,000  Level Minneapolis Center
Sat 12:17:51 PM 43.6414 -100.5656 275° West 416 479 38,000  Level Minneapolis Center
Sat 12:18:52 PM 43.6522 -100.7253 275° West 416 479 38,000  Level Minneapolis Center
Sat 12:19:54 PM 43.6628 -100.9158 274° West 415 478 38,000  Level Minneapolis Center
Sat 12:20:56 PM 43.6731 -101.0736 275° West 414 476 38,000  Level Minneapolis Center
Sat 12:21:57 PM 43.6806 -101.2000 275° West 412 474 38,000  Level Minneapolis Center
Sat 12:22:59 PM 43.6914 -101.3922 275° West 416 479 38,000  Level Minneapolis Center
Sat 12:24:01 PM 43.7003 -101.5519 274° West 417 480 38,000  Level Minneapolis Center
Sat 12:24:43 PM 43.7050 -101.6467 274° West 418 481 38,000  Level Denver Center
Sat 12:25:45 PM 43.7158 -101.8403 274° West 421 484 38,000  Level Denver Center
Sat 12:26:47 PM 43.7236 -102.0011 274° West 421 484 38,000  Level Denver Center
Sat 12:27:49 PM 43.7325 -102.1553 275° West 425 489 38,000  Level Denver Center
Sat 12:28:51 PM 43.7403 -102.3411 273° West 432 497 38,000  Level Denver Center
Sat 12:29:53 PM 43.7483 -102.4997 274° West 433 498 38,000  Level Denver Center
Sat 12:30:55 PM 43.7542 -102.6572 273° West 430 495 38,000  Level Denver Center
Sat 12:31:57 PM 43.7636 -102.8433 274° West 433 498 38,000  Level Denver Center
Sat 12:32:59 PM 43.7725 -103.0281 274° West 433 498 38,000  Level Denver Center
Sat 12:34:02 PM 43.7811 -103.1856 274° West 431 496 38,000  Level Denver Center
Sat 12:35:04 PM 43.7875 -103.3683 273° West 428 493 38,000  Level Denver Center
Sat 12:36:06 PM 43.7925 -103.5222 273° West 423 487 38,000  Level Denver Center
Sat 12:37:08 PM 43.7994 -103.7022 273° West 421 484 38,000  Level Denver Center
Sat 12:38:10 PM 43.8047 -103.8583 273° West 424 488 38,000  Level Denver Center
Sat 12:39:12 PM 43.8086 -104.0369 272° West 421 484 38,000  Level Denver Center
Sat 12:40:14 PM 43.8153 -104.1922 273° West 423 487 38,000  Level Denver Center
Sat 12:41:16 PM 43.8217 -104.3753 273° West 426 490 38,000  Level Denver Center
Sat 12:42:18 PM 43.8258 -104.5339 272° West 429 494 38,000  Level Denver Center
Sat 12:43:20 PM 43.8308 -104.7214 272° West 436 502 38,000  Level Denver Center
Sat 12:44:22 PM 43.8367 -104.8817 273° West 438 504 38,000  Level Denver Center
Sat 12:45:57 PM 43.8433 -105.1472 272° West 437 503 38,000  Level Salt Lake Center
Sat 12:46:58 PM 43.8483 -105.3061 273° West 435 501 38,000  Level Salt Lake Center
Sat 12:47:28 PM 43.8494 -105.4139 271° West 434 499 38,000  Level Denver Center
Sat 12:48:31 PM 43.8525 -105.5742 272° West 437 503 38,000  Level Denver Center
Sat 12:49:33 PM 43.8567 -105.7586 272° West 432 497 38,000  Level Denver Center
Sat 12:50:35 PM 43.8592 -105.9206 271° West 436 502 38,000  Level Denver Center
Sat 12:51:37 PM 43.8600 -106.1092 270° West 439 505 38,000  Level Denver Center
Sat 12:52:39 PM 43.8628 -106.2681 271° West 435 501 38,000  Level Denver Center
Sat 12:53:41 PM 43.8647 -106.4278 271° West 434 499 38,000  Level Denver Center
Sat 12:54:43 PM 43.8667 -106.6144 271° West 435 501 38,000  Level Denver Center
Sat 12:55:45 PM 43.8675 -106.7761 270° West 436 502 38,000  Level Denver Center
Sat 12:56:47 PM 43.8692 -106.9589 271° West 433 498 38,000  Level Denver Center
Sat 12:57:49 PM 43.8700 -107.1267 270° West 436 502 38,000  Level Denver Center
Sat 12:58:51 PM 43.8708 -107.2947 270° West 436 502 38,000  Level Denver Center
Sat 12:59:53 PM 43.8714 -107.4636 270° West 437 503 38,000  Level Denver Center
Sat 01:00:55 PM 43.8722 -107.5997 271° West 441 507 38,000  Level Denver Center
Sat 01:01:57 PM 43.8719 -107.8364 270° West 439 505 38,000  Level Denver Center
Sat 01:03:26 PM 43.8717 -108.0767 270° West 443 510 38,000  Level Salt Lake Center
Sat 01:04:27 PM 43.8708 -108.2472 270° West 443 510 38,000  Level Salt Lake Center
Sat 01:05:29 PM 43.8706 -108.4183 270° West 443 510 38,000  Level Salt Lake Center
Sat 01:06:31 PM 43.8686 -108.5875 269° West 440 506 38,000  Level Salt Lake Center
Sat 01:07:32 PM 43.8686 -108.7608 270° West 447 514 38,000  Level Salt Lake Center
Sat 01:08:34 PM 43.8667 -108.9658 269° West 446 513 38,000  Level Salt Lake Center
Sat 01:09:36 PM 43.8658 -109.1372 270° West 445 512 38,000  Level Salt Lake Center
Sat 01:10:37 PM 43.8622 -109.3092 268° West 446 513 38,000  Level Salt Lake Center
Sat 01:11:39 PM 43.8603 -109.4894 269° West 448 516 38,000  Level Salt Lake Center
Sat 01:12:41 PM 43.8589 -109.6567 269° West 452 520 38,000  Level Salt Lake Center
Sat 01:13:42 PM 43.8547 -109.8531 268° West 456 525 38,000  Level Salt Lake Center
Sat 01:14:44 PM 43.8519 -110.0225 269° West 460 529 38,000  Level Salt Lake Center
Sat 01:15:46 PM 43.8486 -110.2211 269° West 461 531 38,000  Level Salt Lake Center
Sat 01:16:47 PM 43.8453 -110.3908 268° West 461 531 38,000  Level Salt Lake Center
Sat 01:17:49 PM 43.8408 -110.5633 268° West 465 535 38,000  Level Salt Lake Center
Sat 01:18:51 PM 43.8356 -110.7633 268° West 466 536 38,000  Level Salt Lake Center
Sat 01:19:52 PM 43.8328 -110.9311 269° West 459 528 38,000  Level Salt Lake Center
Sat 01:20:54 PM 43.8247 -111.1278 267° West 457 526 38,000  Level Salt Lake Center
Sat 01:21:56 PM 43.8208 -111.2944 268° West 452 520 38,000  Level Salt Lake Center
Sat 01:22:57 PM 43.8153 -111.4606 267° West 450 518 38,000  Level Salt Lake Center
Sat 01:23:59 PM 43.8081 -111.6525 267° West 447 514 38,000  Level Salt Lake Center
Sat 01:25:01 PM 43.8028 -111.8194 268° West 452 520 38,000  Level Salt Lake Center
Sat 01:26:02 PM 43.7950 -112.0172 267° West 457 526 38,000  Level Salt Lake Center
Sat 01:27:04 PM 43.7894 -112.1858 267° West 457 526 38,000  Level Salt Lake Center
Sat 01:28:06 PM 43.7825 -112.3556 267° West 461 531 38,000  Level Salt Lake Center
Sat 01:29:08 PM 43.7739 -112.5536 267° West 463 533 38,000  Level Salt Lake Center
Sat 01:30:09 PM 43.7667 -112.7239 267° West 462 532 38,000  Level Salt Lake Center
Sat 01:31:11 PM 43.7581 -112.9219 267° West 462 532 38,000  Level Salt Lake Center
Sat 01:32:13 PM 43.7503 -113.0933 266° West 465 535 38,000  Level Salt Lake Center
Sat 01:33:14 PM 43.7411 -113.2914 266° West 464 534 38,000  Level Salt Lake Center
Sat 01:34:16 PM 43.7336 -113.4617 267° West 464 534 38,000  Level Salt Lake Center
Sat 01:35:18 PM 43.7256 -113.6353 266° West 471 542 38,000  Level Salt Lake Center
Sat 01:36:20 PM 43.7147 -113.8328 266° West 463 533 38,000 -48 Level Salt Lake Center
Sat 01:37:22 PM 43.7058 -113.9908 266° West 464 534 37,900 -1,610 Descending Salt Lake Center
Sat 01:38:23 PM 43.6944 -114.2028 266° West 462 532 34,700 -2,976 Descending Salt Lake Center
Sat 01:39:25 PM 43.6853 -114.3783 266° West 457 526 31,800 -2,806 Descending Salt Lake Center
Sat 01:40:27 PM 43.6736 -114.5561 265° West 466 536 28,900 -2,661 Descending Salt Lake Center
Sat 01:41:29 PM 43.6639 -114.7314 266° West 457 526 26,300 -1,935 Descending Salt Lake Center
Sat 01:42:31 PM 43.6544 -114.8989 266° West 441 507 24,900 -2,032 Descending Salt Lake Center
Sat 01:43:33 PM 43.6436 -115.0644 265° West 433 498 22,100 -3,073 Descending Salt Lake Center
Sat 01:44:34 PM 43.6325 -115.2450 265° West 425 489 18,600 -2,829 Descending Salt Lake Center
Sat 01:45:36 PM 43.6222 -115.4031 265° West 401 461 16,300 -1,839 Descending Salt Lake Center
Sat 01:46:38 PM 43.6122 -115.5506 265° West 378 435 14,800 -1,742 Descending Salt Lake Center
Sat 01:47:40 PM 43.6017 -115.6953 264° West 365 420 12,700 -1,839 Descending Salt Lake Center
Sat 01:48:42 PM 43.5931 -115.8256 265° West 335 386 11,000 -1,756 Descending Salt Lake Center
Sat 01:49:43 PM 43.5850 -115.9342 264° West 302 348 9,100 -1,756 Descending Salt Lake Center
Sat 01:50:45 PM 43.5778 -116.0456 265° West 285 328 7,400 -1,500 Descending Salt Lake Center
Sat 01:51:47 PM 43.5797 -116.1394 272° West 240 276 6,000 -1,065 Descending Salt Lake Center
Sat 01:52:49 PM 43.6056 -116.2133 296° West 207 238 5,200 -919 Descending Salt Lake Center
Sat 01:53:51 PM 43.6197 -116.2747 288° West 172 198 4,100 -829 Descending Salt Lake Center
Sat 01:54:52 PM 43.5836 -116.2781 184° South 149 171 3,500 -390 Descending Salt Lake Center
Sat 01:55:54 PM 43.5567 -116.2442 138° Southeast 145 167 3,300 -194 Descending Salt Lake Center

Login

Don't have an account? Register now (free) for customized features, flight alerts, and more!